Time;durP1;ratioP1;P1;durP2;ratioP2;P2;SDS_P1;SDS_P2;PMS_P1;PMS_P2;Temp;Humidity;BMP_temperature;BMP_pressure;BME280_temperature;BME280_humidity;BME280_pressure;Samples;Min_cycle;Max_cycle;Signal;HPM_P1;HPM_P2
2021/12/02 00:02:07;;;;;;;19.80;12.60;;;;;;;5.88;73.03;97629.38;4954548;28;20598;-49
2021/12/02 00:04:36;;;;;;;16.95;12.85;;;;;;;5.88;72.85;97624.97;4970824;28;20026;-49
2021/12/02 00:07:04;;;;;;;17.60;12.70;;;;;;;5.90;73.08;97617.78;4954499;28;20045;-49
2021/12/02 00:09:30;;;;;;;16.05;13.30;;;;;;;5.85;72.94;97611.53;4970867;28;20033;-49
2021/12/02 00:11:56;;;;;;;14.98;12.55;;;;;;;5.76;73.05;97621.34;4954607;28;20027;-48
2021/12/02 00:14:24;;;;;;;18.25;12.20;;;;;;;5.80;74.24;97619.94;4954562;28;20397;-49
2021/12/02 00:22:11;;;;;;;25.52;18.38;;;;;;;5.53;74.64;97599.03;5031618;28;20159;-49
2021/12/02 00:24:39;;;;;;;18.52;14.57;;;;;;;5.49;74.89;97597.00;5013911;28;20056;-49
2021/12/02 00:27:08;;;;;;;18.48;13.57;;;;;;;5.50;75.46;97583.81;5013898;28;20022;-49
2021/12/02 00:29:35;;;;;;;115.25;62.13;;;;;;;5.68;75.57;97583.25;5031554;28;20025;-49
2021/12/02 00:32:09;;;;;;;443.58;252.00;;;;;;;5.84;74.52;97583.91;5015152;28;20025;-49
2021/12/02 00:34:44;;;;;;;120.30;58.28;;;;;;;5.82;74.12;97581.50;5035427;28;20049;-49
2021/12/02 00:37:10;;;;;;;981.85;423.10;;;;;;;5.72;74.11;97574.06;5017596;28;20037;-48
2021/12/02 00:39:37;;;;;;;85.38;39.63;;;;;;;5.67;74.02;97571.22;5035505;28;20044;-48
2021/12/02 00:42:03;;;;;;;30.92;18.10;;;;;;;5.61;74.44;97577.22;5035416;28;20017;-49
2021/12/02 00:44:33;;;;;;;27.20;16.65;;;;;;;5.64;74.37;97582.06;5017582;28;20064;-49
2021/12/02 00:47:02;;;;;;;27.05;17.13;;;;;;;5.72;74.17;97573.25;5017580;28;20037;-49
2021/12/02 00:49:29;;;;;;;36.42;21.05;;;;;;;5.84;74.87;97573.50;5017539;28;20028;-49
2021/12/02 00:51:58;;;;;;;46.40;26.38;;;;;;;5.94;74.22;97569.50;5035305;28;20083;-49
2021/12/02 00:54:26;;;;;;;24.35;16.17;;;;;;;6.02;73.27;97562.50;5017417;28;20025;-49
2021/12/02 00:56:53;;;;;;;36.38;20.13;;;;;;;6.12;73.66;97561.13;5017353;28;20036;-49
2021/12/02 00:59:21;;;;;;;25.13;16.35;;;;;;;6.48;73.94;97564.34;5035215;28;20025;-49
2021/12/02 01:01:48;;;;;;;39.50;20.55;;;;;;;6.71;73.39;97566.53;5017165;28;20040;-49
2021/12/02 01:04:21;;;;;;;36.47;25.75;;;;;;;7.11;73.40;97566.44;5035078;28;20368;-49
2021/12/02 01:06:47;;;;;;;21.50;13.70;;;;;;;7.71;71.79;97556.53;5035102;28;20084;-49
2021/12/02 01:09:13;;;;;;;38.25;32.72;;;;;;;8.14;71.04;97561.09;5034970;28;20021;-49
2021/12/02 01:11:40;;;;;;;17.05;12.27;;;;;;;8.46;69.47;97562.91;5017064;28;20039;-49
2021/12/02 01:14:08;;;;;;;19.58;13.25;;;;;;;8.49;68.36;97562.44;5034857;28;20079;-49
2021/12/02 01:16:34;;;;;;;21.60;14.80;;;;;;;8.38;68.21;97562.09;5034843;28;20495;-48
2021/12/02 01:19:02;;;;;;;19.83;13.95;;;;;;;8.27;67.57;97554.16;5017038;28;20403;-50
2021/12/02 01:21:29;;;;;;;17.35;12.18;;;;;;;8.00;67.76;97556.97;5016833;28;20026;-49
2021/12/02 01:23:59;;;;;;;13.65;11.82;;;;;;;7.73;68.22;97553.72;5016892;28;20529;-49
2021/12/02 01:26:27;;;;;;;16.02;11.50;;;;;;;7.46;68.63;97558.28;5016915;28;20034;-49
2021/12/02 01:28:53;;;;;;;15.80;10.82;;;;;;;7.27;69.27;97547.72;5016760;28;20064;-49
2021/12/02 01:31:19;;;;;;;14.73;11.15;;;;;;;7.26;69.62;97553.94;5016774;28;20063;-49
2021/12/02 01:33:46;;;;;;;18.08;11.35;;;;;;;7.60;69.58;97554.59;5016814;28;20454;-49
2021/12/02 01:36:13;;;;;;;12.75;11.10;;;;;;;7.66;68.20;97552.97;5036680;28;20033;-48
2021/12/02 01:38:39;;;;;;;14.60;11.00;;;;;;;7.54;69.08;97555.41;5036465;28;20017;-50
2021/12/02 01:41:05;;;;;;;25.75;23.05;;;;;;;7.41;67.81;97540.63;5054287;28;20108;-49
2021/12/02 01:43:49;;;;;;;14.77;12.60;;;;;;;7.34;68.72;97538.03;5053753;28;20037;-50
2021/12/02 01:46:24;;;;;;;14.55;10.68;;;;;;;7.43;68.20;97541.22;5054282;28;20501;-48
2021/12/02 01:49:03;;;;;;;16.45;11.38;;;;;;;7.42;67.78;97538.81;5054251;28;20082;-49
2021/12/02 01:51:30;;;;;;;16.00;11.32;;;;;;;7.43;68.35;97540.44;5054190;28;20036;-49
2021/12/02 01:54:07;;;;;;;16.33;10.30;;;;;;;7.24;68.21;97532.47;5036188;28;20028;-49
2021/12/02 01:56:47;;;;;;;15.18;11.13;;;;;;;7.11;68.42;97529.91;5036192;28;20040;-49
2021/12/02 01:59:17;;;;;;;12.98;10.65;;;;;;;7.02;68.59;97533.75;5036151;28;20095;-49
2021/12/02 02:01:45;;;;;;;14.15;10.77;;;;;;;6.91;69.12;97519.56;5053860;28;20032;-48
2021/12/02 02:04:12;;;;;;;16.15;13.73;;;;;;;7.00;69.57;97523.50;5035956;28;20067;-49
2021/12/02 02:06:50;;;;;;;17.30;12.50;;;;;;;6.97;69.17;97527.34;5035926;28;20047;-49
2021/12/02 02:09:16;;;;;;;15.18;11.73;;;;;;;6.91;68.82;97525.56;5053866;28;20506;-49
2021/12/02 02:11:41;;;;;;;18.58;12.25;;;;;;;6.76;69.65;97522.38;5035825;28;20044;-49
2021/12/02 02:14:09;;;;;;;16.77;12.63;;;;;;;6.75;69.82;97531.22;5052454;28;20091;-49
2021/12/02 02:16:36;;;;;;;19.17;14.13;;;;;;;6.75;69.92;97531.22;5053688;28;20017;-49
2021/12/02 02:19:04;;;;;;;15.38;12.13;;;;;;;6.76;70.25;97540.63;5053639;28;20017;-49
2021/12/02 02:21:34;;;;;;;17.70;12.68;;;;;;;6.81;70.52;97535.63;5035584;28;20029;-49
2021/12/02 02:24:00;;;;;;;16.58;11.60;;;;;;;6.92;70.32;97542.81;5052250;28;20382;-48
2021/12/02 02:26:35;;;;;;;38.75;34.65;;;;;;;7.08;70.47;97540.75;5035537;28;20025;-50
2021/12/02 02:29:03;;;;;;;15.35;12.73;;;;;;;7.12;69.81;97532.34;5053484;28;20520;-49
2021/12/02 02:31:31;;;;;;;17.40;14.35;;;;;;;7.20;69.95;97537.31;5035488;28;20032;-49
2021/12/02 02:33:58;;;;;;;16.10;11.95;;;;;;;7.24;69.52;97540.28;5035074;28;20112;-49
2021/12/02 02:36:28;;;;;;;16.88;11.85;;;;;;;6.97;69.52;97542.19;5053308;28;20107;-49
2021/12/02 02:38:55;;;;;;;18.48;12.10;;;;;;;7.20;70.10;97539.09;5053280;28;20477;-49
2021/12/02 02:41:27;;;;;;;17.52;14.38;;;;;;;7.06;68.37;97529.72;5053050;28;20036;-49
2021/12/02 02:43:56;;;;;;;19.58;13.07;;;;;;;6.84;70.40;97530.00;5035236;28;20068;-49
2021/12/02 02:46:33;;;;;;;19.00;13.63;;;;;;;6.83;70.29;97517.97;5053030;28;20082;-49
2021/12/02 02:49:03;;;;;;;16.70;14.40;;;;;;;6.85;70.51;97522.97;5035162;28;20116;-49
2021/12/02 02:51:31;;;;;;;19.02;13.00;;;;;;;6.93;70.00;97527.97;5053028;28;20017;-49
2021/12/02 02:54:09;;;;;;;17.90;13.82;;;;;;;6.83;69.85;97522.38;5034479;28;20025;-48
2021/12/02 02:56:40;;;;;;;18.48;14.57;;;;;;;6.82;70.93;97512.94;5034939;28;20490;-49
2021/12/02 02:59:17;;;;;;;16.58;14.02;;;;;;;6.85;70.38;97515.94;5052903;28;20491;-49
2021/12/02 03:12:38;;;;;;;16.80;13.98;;;;;;;6.93;71.02;97528.75;5052650;28;20103;-49
2021/12/02 03:17:31;;;;;;;16.25;13.60;;;;;;;7.11;70.44;97520.28;5052533;28;20024;-49
2021/12/02 03:19:58;;;;;;;17.67;13.23;;;;;;;7.33;70.44;97522.59;5034652;28;20025;-49
2021/12/02 03:22:24;;;;;;;19.48;14.90;;;;;;;7.45;69.84;97520.16;5052373;28;20021;-49
2021/12/02 03:24:50;;;;;;;26.25;13.65;;;;;;;7.60;69.45;97518.03;5034460;28;20027;-49
2021/12/02 03:27:15;;;;;;;14.70;11.77;;;;;;;7.84;69.75;97519.09;5052348;28;20030;-49
2021/12/02 03:29:41;;;;;;;19.15;14.48;;;;;;;8.32;68.67;97523.75;5051003;28;20561;-49
2021/12/02 03:32:08;;;;;;;17.30;12.48;;;;;;;8.62;67.55;97527.56;5034290;28;20024;-49
2021/12/02 03:34:36;;;;;;;15.23;12.55;;;;;;;8.52;67.17;97522.81;5051934;28;20045;-50
2021/12/02 03:37:02;;;;;;;16.65;12.02;;;;;;;8.54;67.77;97518.16;5034300;28;20021;-50
2021/12/02 03:39:28;;;;;;;20.83;13.48;;;;;;;8.76;66.94;97519.34;5034279;28;20028;-49
2021/12/02 03:41:55;;;;;;;16.30;14.30;;;;;;;8.69;65.59;97523.84;5034071;28;20115;-49
2021/12/02 03:44:22;;;;;;;15.77;13.57;;;;;;;8.11;66.21;97519.72;5052181;28;20147;-49
2021/12/02 03:46:52;;;;;;;17.88;14.48;;;;;;;7.79;66.29;97521.56;5052133;28;20028;-49
2021/12/02 03:49:18;;;;;;;16.80;13.30;;;;;;;7.65;67.42;97520.03;5034130;28;20041;-49
2021/12/02 03:51:44;;;;;;;18.73;13.63;;;;;;;7.58;67.70;97514.84;5051979;28;20078;-49
2021/12/02 03:54:10;;;;;;;29.02;16.48;;;;;;;7.53;67.45;97512.06;5050589;28;20387;-49
2021/12/02 03:56:36;;;;;;;28.25;17.85;;;;;;;7.47;68.25;97510.28;5034055;28;20103;-49
2021/12/02 03:59:02;;;;;;;19.52;16.45;;;;;;;7.35;68.88;97510.16;5033911;28;20109;-49
2021/12/02 04:01:28;;;;;;;25.98;19.27;;;;;;;7.07;70.12;97500.84;5050394;28;20032;-50
2021/12/02 04:03:54;;;;;;;20.65;16.98;;;;;;;6.89;70.65;97511.13;5051814;28;20016;-49
2021/12/02 04:06:20;;;;;;;25.75;21.65;;;;;;;6.62;71.60;97513.00;5033692;28;20025;-49
2021/12/02 04:08:51;;;;;;;23.98;19.02;;;;;;;6.29;72.75;97517.25;5051766;28;20029;-49
2021/12/02 04:16:51;;;;;;;25.38;19.90;;;;;;;6.08;74.38;97510.44;4990209;28;20034;-48
2021/12/02 04:19:17;;;;;;;25.05;20.58;;;;;;;6.05;74.32;97517.84;4990289;28;20068;-49
2021/12/02 04:21:42;;;;;;;30.73;19.80;;;;;;;6.03;74.75;97510.25;4990083;28;20569;-49
2021/12/02 04:24:08;;;;;;;26.90;18.92;;;;;;;5.99;74.45;97506.44;4990183;28;20563;-49
2021/12/02 04:26:34;;;;;;;28.40;20.77;;;;;;;6.00;74.70;97508.03;4973765;28;20031;-48
2021/12/02 04:28:59;;;;;;;31.38;24.00;;;;;;;5.97;73.79;97504.00;4990082;28;20026;-48
2021/12/02 04:31:25;;;;;;;24.40;20.33;;;;;;;5.91;74.16;97504.78;4990055;28;20544;-49
2021/12/02 04:33:51;;;;;;;23.75;17.10;;;;;;;5.99;74.59;97507.22;4989746;28;20034;-50
2021/12/02 04:36:17;;;;;;;23.42;17.92;;;;;;;6.09;74.00;97504.22;4990076;28;20043;-49
2021/12/02 04:38:42;;;;;;;23.40;16.75;;;;;;;6.15;73.75;97511.22;4990030;28;20033;-49
2021/12/02 04:41:08;;;;;;;19.63;17.52;;;;;;;6.12;72.88;97511.66;4973625;28;20026;-49
2021/12/02 04:43:34;;;;;;;24.13;20.48;;;;;;;5.92;73.62;97510.81;4989925;28;20034;-49
2021/12/02 04:45:59;;;;;;;23.95;18.25;;;;;;;5.71;73.76;97520.38;4989819;28;20034;-49
2021/12/02 04:48:25;;;;;;;21.27;18.52;;;;;;;5.75;74.46;97521.59;4989955;28;20033;-49
2021/12/02 04:50:51;;;;;;;19.95;16.92;;;;;;;5.94;74.32;97516.63;5016912;28;20041;-49
2021/12/02 04:53:17;;;;;;;22.25;16.20;;;;;;;5.97;73.41;97518.84;5033377;28;20040;-49
2021/12/02 04:55:43;;;;;;;21.23;17.35;;;;;;;5.93;73.74;97515.81;5051301;28;20121;-47
2021/12/02 04:58:09;;;;;;;20.77;16.60;;;;;;;5.93;73.54;97515.00;5051278;28;20466;-49
2021/12/02 05:00:35;;;;;;;28.30;23.35;;;;;;;6.00;74.47;97508.84;5051216;28;20025;-49
2021/12/02 05:03:00;;;;;;;22.33;17.40;;;;;;;6.17;74.31;97514.44;5051149;28;20616;-49
2021/12/02 05:05:26;;;;;;;24.58;20.00;;;;;;;6.28;73.77;97513.06;5033278;28;20403;-49
2021/12/02 05:07:53;;;;;;;21.35;16.48;;;;;;;6.36;73.69;97509.44;5051165;28;20025;-49
2021/12/02 05:10:20;;;;;;;19.02;16.67;;;;;;;6.39;73.19;97515.03;5033164;28;20506;-49
2021/12/02 05:12:46;;;;;;;21.13;17.98;;;;;;;6.41;73.11;97509.63;5051117;28;20514;-49
2021/12/02 05:15:11;;;;;;;25.23;18.60;;;;;;;6.34;72.47;97507.03;5033145;28;20037;-49
2021/12/02 05:17:37;;;;;;;29.83;25.10;;;;;;;6.17;72.44;97509.22;5033816;28;20426;-49
2021/12/02 05:20:05;;;;;;;26.52;23.65;;;;;;;5.96;73.32;97510.25;5036755;28;20143;-49
2021/12/02 05:22:31;;;;;;;24.10;21.02;;;;;;;5.86;73.89;97511.63;5054660;28;20025;-49
2021/12/02 05:24:57;;;;;;;25.17;18.45;;;;;;;6.17;74.30;97511.03;5054739;28;20031;-49
2021/12/02 05:27:22;;;;;;;24.30;19.25;;;;;;;6.42;73.08;97511.25;5054555;28;20033;-49
2021/12/02 05:29:48;;;;;;;29.25;17.42;;;;;;;6.53;73.10;97513.22;5054592;28;20021;-48
2021/12/02 05:32:14;;;;;;;22.70;18.95;;;;;;;6.49;72.18;97511.22;5054494;28;20021;-49
2021/12/02 05:34:40;;;;;;;33.22;25.73;;;;;;;6.39;72.27;97511.63;5054304;28;20052;-50
2021/12/02 05:37:06;;;;;;;21.55;17.00;;;;;;;6.39;72.76;97517.63;5054476;28;20028;-49
2021/12/02 05:39:32;;;;;;;24.65;17.75;;;;;;;6.39;72.50;97517.63;5054615;28;20025;-49
2021/12/02 05:41:57;;;;;;;30.13;20.85;;;;;;;6.42;72.60;97513.03;5054217;28;20532;-49
2021/12/02 05:44:24;;;;;;;23.48;19.73;;;;;;;6.36;72.03;97512.03;5054343;28;20466;-49
2021/12/02 05:46:52;;;;;;;25.27;17.63;;;;;;;6.27;72.57;97516.66;5054262;28;20017;-49
2021/12/02 05:49:18;;;;;;;30.23;18.05;;;;;;;6.36;73.24;97518.06;5054253;28;20032;-49
2021/12/02 05:51:45;;;;;;;26.17;18.73;;;;;;;6.46;72.99;97516.81;5054226;28;20032;-49
2021/12/02 05:54:11;;;;;;;31.23;21.10;;;;;;;6.37;72.42;97513.63;5054051;28;20162;-49
2021/12/02 05:56:37;;;;;;;26.67;20.80;;;;;;;6.10;72.29;97523.28;5054090;28;20020;-49
2021/12/02 05:59:02;;;;;;;28.55;23.35;;;;;;;5.72;72.89;97524.59;5052706;28;20418;-49
2021/12/02 06:01:28;;;;;;;24.45;21.23;;;;;;;5.73;74.05;97515.78;5053939;28;20021;-49
2021/12/02 06:03:54;;;;;;;23.85;19.05;;;;;;;6.04;74.63;97517.06;5053992;28;20539;-49
2021/12/02 06:06:23;;;;;;;40.67;29.23;;;;;;;6.27;73.93;97521.06;5053895;28;20017;-49
2021/12/02 06:08:48;;;;;;;27.63;18.63;;;;;;;6.31;72.85;97517.06;5053868;28;20115;-49
2021/12/02 06:11:14;;;;;;;32.42;20.80;;;;;;;6.21;72.88;97520.06;5053836;28;20020;-49
2021/12/02 06:13:41;;;;;;;23.58;18.33;;;;;;;6.33;72.87;97517.66;5053726;28;20064;-49
2021/12/02 06:16:07;;;;;;;25.80;18.42;;;;;;;6.32;72.56;97516.06;5053670;28;20021;-49
2021/12/02 06:18:33;;;;;;;23.08;18.10;;;;;;;6.46;73.36;97522.84;5035785;28;20028;-49
2021/12/02 06:20:58;;;;;;;47.35;18.63;;;;;;;6.55;72.21;97528.66;5053825;28;20093;-49
2021/12/02 06:23:24;;;;;;;96.90;22.02;;;;;;;6.42;71.73;97526.88;5053522;28;20021;-49
2021/12/02 06:25:50;;;;;;;24.23;19.48;;;;;;;6.35;72.16;97528.66;5035592;28;20398;-49
2021/12/02 06:28:17;;;;;;;28.05;19.27;;;;;;;6.49;72.97;97532.88;5053388;28;20106;-49
2021/12/02 06:30:43;;;;;;;26.48;19.17;;;;;;;6.97;73.49;97529.16;5052286;28;20021;-49
2021/12/02 06:33:10;;;;;;;35.05;22.88;;;;;;;7.33;73.20;97531.22;5053408;28;20402;-49
2021/12/02 06:35:36;;;;;;;23.35;18.23;;;;;;;7.38;71.62;97528.81;5053129;28;20395;-49
2021/12/02 06:38:03;;;;;;;23.50;17.98;;;;;;;7.25;71.18;97525.47;5053298;28;20056;-49
2021/12/02 06:40:28;;;;;;;23.63;19.08;;;;;;;7.12;71.74;97529.72;5053245;28;20036;-49
2021/12/02 06:42:55;;;;;;;27.30;19.15;;;;;;;7.06;71.44;97530.50;5051764;28;20021;-49
2021/12/02 06:45:21;;;;;;;22.83;17.65;;;;;;;7.07;71.25;97539.97;5053140;28;20564;-49
2021/12/02 06:47:48;;;;;;;29.40;20.17;;;;;;;7.04;71.31;97540.34;5053147;28;20021;-49
2021/12/02 06:50:19;;;;;;;30.38;21.15;;;;;;;7.11;71.75;97545.56;5053080;28;20021;-49
2021/12/02 06:52:46;;;;;;;41.13;30.02;;;;;;;7.30;71.19;97549.09;5053013;28;20490;-48
2021/12/02 06:55:13;;;;;;;28.00;20.50;;;;;;;7.43;70.32;97548.25;5052965;28;20410;-49
2021/12/02 06:57:40;;;;;;;34.17;21.73;;;;;;;7.34;70.01;97551.09;5052930;28;20051;-49
2021/12/02 07:00:09;;;;;;;26.90;21.30;;;;;;;7.19;70.37;97551.34;5052856;28;20029;-49
2021/12/02 07:02:35;;;;;;;41.05;23.55;;;;;;;7.09;72.05;97558.03;5034865;28;20398;-49
2021/12/02 07:05:03;;;;;;;201.45;35.58;;;;;;;6.99;71.99;97548.81;5052721;28;20063;-48
2021/12/02 07:07:33;;;;;;;80.72;28.52;;;;;;;6.82;72.87;97558.06;5052741;28;20052;-49
2021/12/02 07:09:59;;;;;;;96.45;29.75;;;;;;;6.61;73.33;97546.09;5034796;28;20064;-49
2021/12/02 07:12:33;;;;;;;81.85;27.17;;;;;;;6.48;73.73;97546.09;5034729;28;20061;-48
2021/12/02 07:15:05;;;;;;;55.83;29.17;;;;;;;6.22;74.72;97552.13;5052601;28;20032;-48
2021/12/02 07:17:32;;;;;;;388.92;45.47;;;;;;;6.07;74.92;97560.91;5052561;28;20036;-48
2021/12/02 07:19:59;;;;;;;178.00;36.30;;;;;;;6.04;75.68;97565.72;5052565;28;20032;-48
2021/12/02 07:22:25;;;;;;;84.38;61.03;;;;;;;6.04;75.72;97569.16;5052394;28;20056;-48
2021/12/02 07:24:51;;;;;;;164.98;118.63;;;;;;;5.91;75.93;97569.88;5052397;28;20092;-47
2021/12/02 07:27:16;;;;;;;170.13;108.28;;;;;;;5.84;76.73;97570.91;5052394;28;20071;-48
2021/12/02 07:29:42;;;;;;;830.30;417.83;;;;;;;5.81;77.21;97572.06;5052315;28;20028;-48
2021/12/02 07:32:11;;;;;;;231.43;129.70;;;;;;;5.76;77.37;97575.28;5050905;28;20490;-49
2021/12/02 07:34:40;;;;;;;48.58;32.42;;;;;;;5.69;77.09;97569.22;5051945;28;20041;-49
2021/12/02 07:37:06;;;;;;;120.82;81.30;;;;;;;5.68;77.48;97572.84;5052197;28;20029;-49
2021/12/02 07:39:32;;;;;;;51.92;35.00;;;;;;;5.73;78.76;97572.25;5052130;28;20414;-48
2021/12/02 07:41:58;;;;;;;81.45;64.20;;;;;;;5.83;78.35;97577.09;5033693;28;20055;-48
2021/12/02 07:44:23;;;;;;;37.33;27.33;;;;;;;5.94;79.01;97585.13;5052071;28;20025;-48
2021/12/02 07:46:49;;;;;;;79.90;34.75;;;;;;;6.01;79.18;97582.56;5052018;28;20021;-48
2021/12/02 07:49:15;;;;;;;47.03;26.98;;;;;;;6.19;79.10;97579.38;5051986;28;20025;-48
2021/12/02 07:51:45;;;;;;;34.25;22.48;;;;;;;6.23;78.22;97587.59;5051908;28;20017;-47
2021/12/02 07:54:12;;;;;;;36.08;24.13;;;;;;;6.20;77.86;97589.59;5051985;28;20509;-48
2021/12/02 07:56:38;;;;;;;41.15;26.50;;;;;;;6.23;77.90;97592.81;5051898;28;20104;-48
2021/12/02 07:59:05;;;;;;;47.78;26.65;;;;;;;6.37;78.92;97599.63;5051877;28;20032;-48
2021/12/02 08:01:35;;;;;;;884.50;586.28;;;;;;;6.56;78.65;97584.97;5051695;28;20025;-48
2021/12/02 08:04:01;;;;;;;1784.00;883.42;;;;;;;6.56;78.06;97595.41;5033899;28;20413;-48
2021/12/02 08:06:27;;;;;;;602.35;383.05;;;;;;;6.60;78.34;97588.81;5051752;28;20017;-48
2021/12/02 08:08:54;;;;;;;169.43;66.68;;;;;;;6.64;78.15;97587.41;5051743;28;20025;-48
2021/12/02 08:11:19;;;;;;;386.15;269.75;;;;;;;6.80;78.86;97593.97;5051733;28;20031;-46
2021/12/02 08:13:51;;;;;;;82.78;50.55;;;;;;;7.12;78.68;97594.13;5051637;28;20021;-48
2021/12/02 08:16:18;;;;;;;70.43;37.17;;;;;;;7.22;78.46;97594.50;5033992;28;20375;-48
2021/12/02 08:18:44;;;;;;;66.88;34.05;;;;;;;7.39;79.39;97598.25;5051625;28;20082;-48
2021/12/02 08:21:10;;;;;;;50.75;30.27;;;;;;;7.43;78.92;97593.44;5051673;28;20022;-48
2021/12/02 08:23:36;;;;;;;69.38;55.65;;;;;;;7.45;79.34;97588.00;5051561;28;20036;-48
2021/12/02 08:26:02;;;;;;;36.00;23.23;;;;;;;7.62;79.41;97593.56;5051522;28;20048;-48
2021/12/02 08:28:28;;;;;;;56.40;38.65;;;;;;;7.75;79.32;97593.50;5051613;28;20025;-48
2021/12/02 08:30:55;;;;;;;37.15;23.58;;;;;;;7.74;78.86;97597.09;5017330;28;20025;-48
2021/12/02 08:33:21;;;;;;;42.78;28.92;;;;;;;7.80;78.89;97591.84;5051556;28;20172;-48
2021/12/02 08:35:48;;;;;;;24.67;17.98;;;;;;;7.96;79.06;97587.94;5033308;28;20404;-48
2021/12/02 08:38:16;;;;;;;29.17;19.70;;;;;;;8.10;79.17;97598.31;5051521;28;20632;-48
2021/12/02 08:40:43;;;;;;;25.33;16.25;;;;;;;8.27;78.79;97603.81;5051474;28;20104;-49
2021/12/02 08:43:11;;;;;;;29.40;18.30;;;;;;;8.53;79.32;97603.66;5051391;28;20013;-47
2021/12/02 08:45:39;;;;;;;26.77;15.10;;;;;;;8.82;78.52;97601.41;5051427;28;20370;-48
2021/12/02 08:48:06;;;;;;;21.00;14.55;;;;;;;8.93;77.12;97603.31;5051424;28;20049;-48
2021/12/02 08:50:34;;;;;;;36.72;29.00;;;;;;;8.95;76.92;97601.28;5051341;28;20108;-48
2021/12/02 08:53:02;;;;;;;29.13;16.17;;;;;;;9.02;77.24;97605.66;5052692;28;20017;-48
2021/12/02 08:55:31;;;;;;;19.15;15.93;;;;;;;9.03;76.94;97602.78;5055293;28;20025;-48
2021/12/02 08:57:58;;;;;;;16.88;11.70;;;;;;;8.72;75.17;97609.72;5037264;28;20060;-49
2021/12/02 09:00:27;;;;;;;20.52;12.98;;;;;;;8.22;74.50;97612.28;5055149;28;20017;-49
2021/12/02 09:02:54;;;;;;;16.95;12.20;;;;;;;7.89;75.69;97625.56;5055022;28;20029;-48
2021/12/02 09:05:20;;;;;;;19.00;12.75;;;;;;;7.84;76.14;97628.78;5055073;28;20549;-48
2021/12/02 09:07:46;;;;;;;34.03;26.25;;;;;;;7.86;76.95;97625.97;5054996;28;20024;-48
2021/12/02 09:10:12;;;;;;;21.73;15.35;;;;;;;7.85;76.48;97630.41;5054955;28;20043;-49
2021/12/02 09:12:39;;;;;;;22.50;14.13;;;;;;;7.78;76.73;97634.84;5054905;28;20108;-48
2021/12/02 09:15:09;;;;;;;18.42;13.40;;;;;;;7.69;77.27;97630.88;5054907;28;20025;-49
2021/12/02 09:17:36;;;;;;;18.23;13.63;;;;;;;7.60;77.83;97644.16;5054818;28;20029;-49
2021/12/02 09:20:04;;;;;;;43.72;28.58;;;;;;;7.56;77.09;97642.97;5054835;28;20025;-49
2021/12/02 09:22:30;;;;;;;21.73;13.95;;;;;;;7.60;77.45;97641.53;5054716;28;20060;-49
2021/12/02 09:24:56;;;;;;;25.08;15.02;;;;;;;7.68;77.68;97645.72;5054744;28;20030;-49
2021/12/02 09:27:22;;;;;;;26.38;14.18;;;;;;;7.74;77.39;97644.91;5054660;28;20563;-49
2021/12/02 09:29:47;;;;;;;26.33;14.18;;;;;;;7.84;77.77;97638.44;5054644;28;20498;-49
2021/12/02 09:32:13;;;;;;;34.55;23.20;;;;;;;7.91;77.74;97642.63;5054591;28;20048;-49
2021/12/02 09:34:39;;;;;;;31.27;14.60;;;;;;;7.92;77.34;97641.59;5033071;28;20404;-49
2021/12/02 09:37:06;;;;;;;30.98;12.50;;;;;;;8.07;77.55;97630.91;5050110;28;20025;-49
2021/12/02 09:39:33;;;;;;;16.25;10.82;;;;;;;8.21;76.40;97639.47;5036415;28;20021;-49
2021/12/02 09:42:01;;;;;;;47.42;33.88;;;;;;;8.21;75.01;97639.47;5054269;28;20024;-49
2021/12/02 09:44:28;;;;;;;22.60;11.05;;;;;;;8.20;74.11;97637.84;5054308;28;20021;-48
2021/12/02 09:46:54;;;;;;;21.13;10.15;;;;;;;8.28;75.65;97644.63;5036341;28;20025;-49
2021/12/02 09:49:20;;;;;;;26.75;10.13;;;;;;;8.75;75.51;97645.13;5054243;28;20032;-48
2021/12/02 09:52:03;;;;;;;24.60;10.13;;;;;;;9.29;74.91;97640.97;5054104;28;20036;-49
2021/12/02 09:54:41;;;;;;;41.20;22.33;;;;;;;9.43;73.31;97646.88;5054200;28;20064;-49
2021/12/02 09:57:12;;;;;;;16.90;10.13;;;;;;;9.68;73.19;97636.34;5054122;28;20033;-49
2021/12/02 10:02:09;;;;;;;21.30;9.60;;;;;;;9.76;72.15;97636.03;5053937;28;20036;-49
2021/12/02 10:04:42;;;;;;;18.88;8.95;;;;;;;9.88;71.63;97633.47;5053616;28;20017;-49
2021/12/02 10:07:33;;;;;;;13.27;8.73;;;;;;;9.77;70.85;97627.13;5036012;28;20521;-49
2021/12/02 10:10:14;;;;;;;15.27;7.70;;;;;;;9.70;70.76;97623.81;5035999;28;20056;-49
2021/12/02 10:12:53;;;;;;;16.70;7.35;;;;;;;9.86;70.99;97617.16;5053864;28;20032;-49
2021/12/02 10:15:21;;;;;;;18.52;8.82;;;;;;;10.12;70.54;97615.19;5053704;28;20025;-49
2021/12/02 10:17:50;;;;;;;14.23;7.47;;;;;;;10.36;70.11;97613.44;5053928;28;20386;-49
2021/12/02 10:23:16;;;;;;;12.00;7.22;;;;;;;10.54;69.46;97607.31;5053568;28;20037;-48
2021/12/02 10:25:58;;;;;;;16.50;6.80;;;;;;;10.47;69.05;97604.81;5052372;28;20027;-49
2021/12/02 10:28:25;;;;;;;14.18;6.85;;;;;;;10.32;68.65;97612.31;5053566;28;20026;-49
2021/12/02 10:31:16;;;;;;;37.22;22.48;;;;;;;10.04;69.61;97616.31;5053463;28;20025;-48
2021/12/02 10:33:47;;;;;;;30.13;7.68;;;;;;;10.01;69.33;97598.41;5051926;28;20033;-49
2021/12/02 10:36:31;;;;;;;15.30;7.38;;;;;;;9.72;70.60;97603.44;5017312;28;20049;-49
2021/12/02 10:39:09;;;;;;;20.65;7.78;;;;;;;9.56;70.84;97604.03;5033381;28;20108;-49
2021/12/02 10:41:35;;;;;;;16.27;8.70;;;;;;;9.32;72.13;97608.34;5033183;28;20028;-49
2021/12/02 10:44:19;;;;;;;9.80;6.45;;;;;;;9.22;72.30;97597.59;5033325;28;20128;-49
2021/12/02 10:46:55;;;;;;;13.23;7.28;;;;;;;9.15;71.75;97598.44;5033298;28;20021;-48
2021/12/02 10:49:22;;;;;;;12.77;7.93;;;;;;;8.85;71.66;97603.56;5015245;28;20025;-49
2021/12/02 10:51:53;;;;;;;22.08;17.35;;;;;;;8.63;73.36;97602.38;5033062;28;20022;-48
2021/12/02 10:54:34;;;;;;;13.30;8.43;;;;;;;8.70;73.93;97601.31;5032963;28;20075;-49
2021/12/02 10:57:08;;;;;;;13.65;8.57;;;;;;;8.63;73.09;97592.69;5032961;28;20499;-49
2021/12/02 10:59:42;;;;;;;11.88;7.53;;;;;;;8.41;73.22;97594.91;5015141;28;20041;-49
2021/12/02 11:02:35;;;;;;;17.45;7.70;;;;;;;8.28;73.57;97592.34;5032867;28;20029;-48
2021/12/02 11:05:18;;;;;;;12.00;7.38;;;;;;;8.20;73.67;97588.19;5032540;28;20045;-48
2021/12/02 11:07:58;;;;;;;13.02;6.45;;;;;;;8.35;73.57;97587.88;5032908;28;20025;-48
2021/12/02 11:10:25;;;;;;;12.30;6.90;;;;;;;8.49;73.28;97592.03;5032677;28;20029;-49
2021/12/02 11:12:54;;;;;;;42.53;36.95;;;;;;;8.59;72.92;97594.97;5032671;28;20239;-49
2021/12/02 11:15:26;;;;;;;10.98;6.93;;;;;;;8.70;72.65;97590.03;5031996;28;20120;-48
2021/12/02 11:18:06;;;;;;;13.90;7.30;;;;;;;8.93;72.59;97586.78;5032682;28;20072;-49
2021/12/02 11:20:43;;;;;;;11.77;5.97;;;;;;;8.93;71.34;97578.94;5032572;28;20033;-49
2021/12/02 11:23:10;;;;;;;11.13;5.45;;;;;;;8.93;71.50;97585.00;5032551;28;20476;-49
2021/12/02 11:25:40;;;;;;;9.40;6.40;;;;;;;9.02;71.00;97582.09;5032519;28;20072;-48
2021/12/02 11:28:07;;;;;;;12.38;6.22;;;;;;;9.05;71.47;97584.25;5032502;28;20026;-49
2021/12/02 11:30:35;;;;;;;10.45;5.25;;;;;;;9.08;70.58;97578.59;5014548;28;20565;-48
2021/12/02 11:33:07;;;;;;;10.90;5.28;;;;;;;9.10;71.38;97576.56;5032347;28;20051;-49
2021/12/02 11:35:36;;;;;;;14.93;5.57;;;;;;;9.18;70.74;97565.81;5014257;28;20511;-49
2021/12/02 11:38:16;;;;;;;15.25;8.02;;;;;;;9.27;70.61;97568.91;5032326;28;20034;-49
2021/12/02 11:40:47;;;;;;;8.07;5.22;;;;;;;9.31;70.23;97567.47;5032224;28;20037;-49
2021/12/02 11:43:18;;;;;;;9.00;4.93;;;;;;;9.34;69.78;97564.41;5014293;28;20117;-49
2021/12/02 11:45:48;;;;;;;22.42;11.52;;;;;;;9.34;69.66;97564.41;5032076;28;20123;-49
2021/12/02 11:48:17;;;;;;;9.73;5.72;;;;;;;9.29;69.58;97561.66;5032115;28;20029;-48
2021/12/02 11:50:44;;;;;;;10.88;5.28;;;;;;;9.40;69.35;97566.94;5014182;28;20503;-48
2021/12/02 11:53:10;;;;;;;12.95;7.05;;;;;;;9.39;70.17;97562.72;5014294;28;20376;-48
2021/12/02 11:55:40;;;;;;;10.50;6.05;;;;;;;9.39;70.32;97559.31;5031974;28;20025;-48
2021/12/02 11:58:07;;;;;;;13.82;6.85;;;;;;;9.40;70.02;97559.09;5014212;28;20069;-48
2021/12/02 12:00:33;;;;;;;10.50;6.88;;;;;;;9.44;69.00;97556.84;5014217;28;20026;-48
2021/12/02 12:03:19;;;;;;;9.60;6.32;;;;;;;9.64;69.25;97550.53;5014104;28;20436;-48